< < Back
Terminal Aerodrome Forecast


Current Version              Previous Versions:   1  2  3  4  5  6  7  8  9  

Terminal Aerodrome Forecast

474
FTUS42 KJAX 232300
TAFSSI
TAF
KSSI 232331Z 2400/2424 VRB03KT P6SM SKC
     FM241400 10010KT P6SM FEW050=

Latest METAR

849
SAUS70 KWBC 250300 RRN
MTRSSI
METAR KSSI 250253Z AUTO 12004KT 10SM CLR 21/19 A2997 RMK AO2 SLP148
T02110194 53002 PWINO $


USA.gov is the U.S. government's official web portal to all federal, state and local government web resources and services.